Flugplatz Meppe Airport

Bericht für ETWM

vom 22.03. um 22:20 UTC

Wind 3 kt aus 300°

Sichtweite 10 km oder mehr

Temperatur 9.0°C

Taupunkt 6.0°C

Luftfeuchtigkeit 81%

Luftdruck 1026 hPa

ETWM 222220Z AUTO 30003KT 9999 // ////// 09/06 Q1026 ///
Keine Prognose (TAF) verfügbar.
Impressum